Terminal Aerodrome Forecast
Issued by NWS

Home | Current Version | Previous Version | Text Only | Print | Product List | Glossary On
Versions: 1 2 3 4 5 6 7 8 9 10 11 12
884
FTUS44 KTSA 240530
TAFMLC
TAF
KMLC 240530Z 2406/2506 19003KT P6SM SCT250
     FM241600 19011G18KT P6SM SCT250
     FM250000 18005KT P6SM SCT180=

USA.gov is the U.S. government's official web portal to all federal, state and local government web resources and services.